createdAt,value
2022-10-03T03:59:14.527Z,1018.63
2022-10-03T04:00:12.902Z,1018.62
2022-10-03T04:01:12.992Z,1018.65
2022-10-03T04:02:12.928Z,1018.66
2022-10-03T04:03:12.884Z,1018.67
2022-10-03T04:04:14.509Z,1018.68
2022-10-03T04:05:12.868Z,1018.70
2022-10-03T04:06:12.910Z,1018.70
2022-10-03T04:07:12.861Z,1018.73
2022-10-03T04:08:12.882Z,1018.73
2022-10-03T04:09:14.509Z,1018.74
2022-10-03T04:10:14.509Z,1018.73
2022-10-03T04:11:14.512Z,1018.75
2022-10-03T04:12:14.498Z,1018.76
2022-10-03T04:13:14.520Z,1018.77
2022-10-03T04:14:14.518Z,1018.76
2022-10-03T04:15:14.540Z,1018.75
2022-10-03T04:16:14.538Z,1018.75
2022-10-03T04:17:14.506Z,1018.76
2022-10-03T04:18:14.523Z,1018.75
2022-10-03T04:19:14.543Z,1018.75
2022-10-03T04:20:14.514Z,1018.77
2022-10-03T04:21:18.785Z,1018.74
2022-10-03T04:22:14.507Z,1018.76
2022-10-03T04:23:14.531Z,1018.77
2022-10-03T04:24:13.792Z,1018.76
2022-10-03T04:25:14.552Z,1018.80
2022-10-03T04:26:14.513Z,1018.79
2022-10-03T04:27:14.510Z,1018.79
2022-10-03T04:28:14.618Z,1018.78
2022-10-03T04:29:14.524Z,1018.76
2022-10-03T04:30:12.775Z,1018.78
2022-10-03T04:31:12.768Z,1018.77
2022-10-03T04:32:12.757Z,1018.78
2022-10-03T04:33:12.765Z,1018.81
2022-10-03T04:34:14.531Z,1018.79
2022-10-03T04:35:12.762Z,1018.77
2022-10-03T04:36:12.762Z,1018.81
2022-10-03T04:37:12.749Z,1018.79
2022-10-03T04:38:12.751Z,1018.80
2022-10-03T04:39:14.550Z,1018.83
2022-10-03T04:40:12.754Z,1018.84
2022-10-03T04:41:12.730Z,1018.83
2022-10-03T04:42:12.720Z,1018.84
2022-10-03T04:43:14.530Z,1018.86
2022-10-03T04:44:15.058Z,1018.86
2022-10-03T04:45:13.718Z,1018.89
2022-10-03T04:46:13.829Z,1018.87
2022-10-03T04:47:14.547Z,1018.91
2022-10-03T04:48:13.720Z,1018.87
2022-10-03T04:49:14.555Z,1018.89
2022-10-03T04:50:13.702Z,1018.86
2022-10-03T04:51:14.533Z,1018.88
2022-10-03T04:52:12.699Z,1018.85
2022-10-03T04:53:14.559Z,1018.89
2022-10-03T04:54:15.047Z,1018.91
2022-10-03T04:55:12.685Z,1018.91
2022-10-03T04:56:14.542Z,1018.88
2022-10-03T04:57:12.693Z,1018.86
2022-10-03T04:58:13.684Z,1018.88
2022-10-03T04:59:14.055Z,1018.86
2022-10-03T05:00:14.561Z,1018.85
2022-10-03T05:01:13.714Z,1018.88
2022-10-03T05:02:12.801Z,1018.88
2022-10-03T05:03:12.852Z,1018.89
2022-10-03T05:04:12.657Z,1018.88
2022-10-03T05:05:15.101Z,1018.90
2022-10-03T05:06:13.677Z,1018.90
2022-10-03T05:07:12.690Z,1018.99
2022-10-03T05:08:12.640Z,1018.99
2022-10-03T05:09:14.060Z,1018.99
2022-10-03T05:10:14.559Z,1019.02
2022-10-03T05:11:12.638Z,1019.00
2022-10-03T05:12:12.637Z,1018.99
2022-10-03T05:13:12.623Z,1018.99
2022-10-03T05:14:14.595Z,1019.02
2022-10-03T05:15:14.565Z,1018.98
2022-10-03T05:16:14.714Z,1018.98
2022-10-03T05:17:14.546Z,1018.99
2022-10-03T05:18:14.561Z,1019.00
2022-10-03T05:19:14.592Z,1019.01
2022-10-03T05:20:14.567Z,1019.00
2022-10-03T05:21:14.566Z,1019.04
2022-10-03T05:22:14.578Z,1019.03
2022-10-03T05:23:14.583Z,1019.02
2022-10-03T05:24:14.575Z,1019.03
2022-10-03T05:25:14.595Z,1019.08
2022-10-03T05:26:43.030Z,1019.02
2022-10-03T05:27:14.570Z,1019.05
2022-10-03T05:28:13.633Z,1019.04
2022-10-03T05:29:14.072Z,1019.05
2022-10-03T05:30:12.590Z,1019.05
2022-10-03T05:31:14.126Z,1019.10
2022-10-03T05:32:12.574Z,1019.12
2022-10-03T05:33:14.588Z,1019.14
2022-10-03T05:34:12.603Z,1019.15
2022-10-03T05:35:12.577Z,1019.16
2022-10-03T05:36:12.566Z,1019.19
2022-10-03T05:37:14.091Z,1019.18
2022-10-03T05:38:12.578Z,1019.19
2022-10-03T05:39:12.575Z,1019.19
2022-10-03T05:40:14.124Z,1019.17
2022-10-03T05:41:12.557Z,1019.18
2022-10-03T05:42:22.601Z,1019.17
2022-10-03T05:43:12.546Z,1019.17
2022-10-03T05:44:14.105Z,1019.16
2022-10-03T05:45:14.084Z,1019.15
2022-10-03T05:46:12.623Z,1019.19
2022-10-03T05:47:14.073Z,1019.17
2022-10-03T05:48:14.087Z,1019.20
2022-10-03T05:49:14.108Z,1019.17
2022-10-03T05:50:18.079Z,1019.22
2022-10-03T05:51:14.090Z,1019.22
2022-10-03T05:52:14.215Z,1019.22
2022-10-03T05:53:14.082Z,1019.24
2022-10-03T05:54:14.096Z,1019.23
2022-10-03T05:55:14.089Z,1019.25
2022-10-03T05:56:12.500Z,1019.26
2022-10-03T05:57:14.165Z,1019.27
2022-10-03T05:58:14.096Z,1019.26
2022-10-03T05:59:12.508Z,1019.26
2022-10-03T06:00:12.493Z,1019.28
2022-10-03T06:01:13.616Z,1019.31
2022-10-03T06:02:12.534Z,1019.30
2022-10-03T06:03:14.165Z,1019.30
2022-10-03T06:04:12.485Z,1019.30
2022-10-03T06:05:12.505Z,1019.30
2022-10-03T06:06:12.489Z,1019.29
2022-10-03T06:07:12.490Z,1019.33
2022-10-03T06:08:14.607Z,1019.29
2022-10-03T06:09:12.487Z,1019.32
2022-10-03T06:10:12.467Z,1019.30
2022-10-03T06:11:14.111Z,1019.35
2022-10-03T06:12:12.458Z,1019.33
2022-10-03T06:13:14.184Z,1019.33
2022-10-03T06:14:12.460Z,1019.33
2022-10-03T06:15:14.118Z,1019.33
2022-10-03T06:16:13.521Z,1019.34
2022-10-03T06:17:12.462Z,1019.35
2022-10-03T06:18:13.443Z,1019.36
2022-10-03T06:19:14.126Z,1019.39
2022-10-03T06:20:14.120Z,1019.44
2022-10-03T06:21:12.438Z,1019.42
2022-10-03T06:22:14.227Z,1019.43
2022-10-03T06:23:13.427Z,1019.44
2022-10-03T06:24:14.141Z,1019.43
2022-10-03T06:25:13.438Z,1019.42
2022-10-03T06:26:14.112Z,1019.44
2022-10-03T06:27:14.116Z,1019.47
2022-10-03T06:28:14.175Z,1019.44
2022-10-03T06:29:14.117Z,1019.46
2022-10-03T06:30:14.133Z,1019.45
2022-10-03T06:31:14.201Z,1019.42
2022-10-03T06:32:14.121Z,1019.45
2022-10-03T06:33:13.428Z,1019.47
2022-10-03T06:34:13.635Z,1019.46
2022-10-03T06:35:13.420Z,1019.42
2022-10-03T06:36:12.401Z,1019.45
2022-10-03T06:37:12.384Z,1019.49
2022-10-03T06:38:14.143Z,1019.51
2022-10-03T06:39:13.386Z,1019.51
2022-10-03T06:40:12.399Z,1019.50
2022-10-03T06:41:14.148Z,1019.53
2022-10-03T06:42:12.407Z,1019.52
2022-10-03T06:43:14.139Z,1019.48
2022-10-03T06:44:13.363Z,1019.51
2022-10-03T06:45:12.367Z,1019.51
2022-10-03T06:46:14.175Z,1019.51
2022-10-03T06:47:14.123Z,1019.51
2022-10-03T06:48:14.156Z,1019.51
2022-10-03T06:49:14.132Z,1019.51
2022-10-03T06:50:14.125Z,1019.51
2022-10-03T06:51:14.132Z,1019.47
2022-10-03T06:52:14.158Z,1019.52
2022-10-03T06:53:14.152Z,1019.50
2022-10-03T06:54:12.446Z,1019.52
2022-10-03T06:55:14.137Z,1019.48
2022-10-03T06:56:14.149Z,1019.54
2022-10-03T06:57:14.159Z,1019.52
2022-10-03T06:58:14.177Z,1019.59
2022-10-03T06:59:14.157Z,1019.57
2022-10-03T07:00:14.137Z,1019.56
2022-10-03T07:01:12.406Z,1019.55
2022-10-03T07:02:12.403Z,1019.54
2022-10-03T07:03:13.662Z,1019.52
2022-10-03T07:04:13.670Z,1019.53
2022-10-03T07:05:12.326Z,1019.53
2022-10-03T07:06:12.328Z,1019.57
2022-10-03T07:07:14.163Z,1019.57
2022-10-03T07:08:12.309Z,1019.55
2022-10-03T07:09:13.677Z,1019.57
2022-10-03T07:10:12.315Z,1019.61
2022-10-03T07:11:12.307Z,1019.59
2022-10-03T07:12:14.402Z,1019.58
2022-10-03T07:13:13.682Z,1019.62
2022-10-03T07:14:14.178Z,1019.66
2022-10-03T07:15:12.307Z,1019.64
2022-10-03T07:16:26.394Z,1019.66
2022-10-03T07:17:12.337Z,1019.66
2022-10-03T07:18:14.184Z,1019.64
2022-10-03T07:19:14.155Z,1019.66
2022-10-03T07:20:14.197Z,1019.64
2022-10-03T07:21:16.881Z,1019.67
2022-10-03T07:22:14.165Z,1019.66
2022-10-03T07:23:14.164Z,1019.73
2022-10-03T07:24:14.168Z,1019.70
2022-10-03T07:25:14.184Z,1019.71
2022-10-03T07:26:14.171Z,1019.77
2022-10-03T07:27:14.166Z,1019.77
2022-10-03T07:28:14.226Z,1019.82
2022-10-03T07:29:14.210Z,1019.82
2022-10-03T07:30:14.170Z,1019.80
2022-10-03T07:31:14.267Z,1019.83
2022-10-03T07:32:14.182Z,1019.80
2022-10-03T07:33:14.184Z,1019.84
2022-10-03T07:34:12.252Z,1019.81
2022-10-03T07:35:12.253Z,1019.85
2022-10-03T07:36:12.255Z,1019.87
2022-10-03T07:37:14.228Z,1019.88
2022-10-03T07:38:12.249Z,1019.84
2022-10-03T07:39:12.248Z,1019.87
2022-10-03T07:40:14.218Z,1019.87
2022-10-03T07:41:12.249Z,1019.91
2022-10-03T07:42:14.220Z,1019.92
2022-10-03T07:43:12.300Z,1019.91
2022-10-03T07:44:13.690Z,1019.93
2022-10-03T07:45:14.204Z,1019.93
2022-10-03T07:46:12.333Z,1019.96
2022-10-03T07:47:14.210Z,1019.98
2022-10-03T07:48:12.226Z,1020.02
2022-10-03T07:49:17.652Z,1019.98
2022-10-03T07:50:14.203Z,1019.99
2022-10-03T07:51:13.224Z,1020.01
2022-10-03T07:52:12.222Z,1020.02
2022-10-03T07:53:14.189Z,1020.02
2022-10-03T07:54:13.244Z,1020.03
2022-10-03T07:55:14.227Z,1020.05
2022-10-03T07:56:13.221Z,1020.04
2022-10-03T07:57:14.190Z,1020.03
2022-10-03T07:58:12.219Z,1020.08
2022-10-03T07:59:14.196Z,1020.08
2022-10-03T08:00:13.738Z,1020.06
2022-10-03T08:01:14.188Z,1020.09
2022-10-03T08:02:13.244Z,1020.07
2022-10-03T08:03:13.824Z,1020.08
2022-10-03T08:04:13.706Z,1020.10
2022-10-03T08:05:13.709Z,1020.11
2022-10-03T08:06:13.222Z,1020.10
2022-10-03T08:07:13.706Z,1020.14
2022-10-03T08:08:13.702Z,1020.13
2022-10-03T08:09:13.725Z,1020.15
2022-10-03T08:10:14.230Z,1020.19
2022-10-03T08:11:12.216Z,1020.16
2022-10-03T08:12:12.184Z,1020.24
2022-10-03T08:13:12.205Z,1020.22
2022-10-03T08:14:13.194Z,1020.21
2022-10-03T08:15:13.189Z,1020.25
2022-10-03T08:16:13.269Z,1020.21
2022-10-03T08:17:12.179Z,1020.25
2022-10-03T08:18:12.194Z,1020.28
2022-10-03T08:19:13.237Z,1020.29
2022-10-03T08:20:13.178Z,1020.29
2022-10-03T08:21:13.714Z,1020.29
2022-10-03T08:22:13.757Z,1020.29
2022-10-03T08:23:13.717Z,1020.32
2022-10-03T08:24:13.231Z,1020.28
2022-10-03T08:25:13.728Z,1020.31
2022-10-03T08:26:13.745Z,1020.32
2022-10-03T08:27:13.751Z,1020.29
2022-10-03T08:28:13.846Z,1020.30
2022-10-03T08:29:13.721Z,1020.32
2022-10-03T08:30:13.737Z,1020.32
2022-10-03T08:31:13.804Z,1020.37
2022-10-03T08:32:13.750Z,1020.35
2022-10-03T08:33:13.723Z,1020.38
2022-10-03T08:34:13.740Z,1020.36
2022-10-03T08:35:13.734Z,1020.32
2022-10-03T08:36:13.728Z,1020.30
2022-10-03T08:37:13.736Z,1020.32
2022-10-03T08:38:13.768Z,1020.32
2022-10-03T08:39:13.737Z,1020.33
2022-10-03T08:40:13.759Z,1020.33
2022-10-03T08:41:13.759Z,1020.39
2022-10-03T08:42:12.159Z,1020.36
2022-10-03T08:43:13.748Z,1020.33
2022-10-03T08:44:12.166Z,1020.40
2022-10-03T08:45:13.747Z,1020.39
2022-10-03T08:46:12.264Z,1020.37
2022-10-03T08:47:12.153Z,1020.39
2022-10-03T08:48:12.150Z,1020.38
2022-10-03T08:49:12.158Z,1020.37
2022-10-03T08:50:13.778Z,1020.37
2022-10-03T08:51:12.150Z,1020.39
2022-10-03T08:52:13.752Z,1020.35
2022-10-03T08:53:13.772Z,1020.40
2022-10-03T08:54:13.164Z,1020.36
2022-10-03T08:55:13.752Z,1020.39
2022-10-03T08:56:13.754Z,1020.37
2022-10-03T08:57:13.756Z,1020.41
2022-10-03T08:58:13.744Z,1020.43
2022-10-03T08:59:13.745Z,1020.39
2022-10-03T09:00:13.767Z,1020.40
2022-10-03T09:01:13.953Z,1020.42
2022-10-03T09:02:13.867Z,1020.44
2022-10-03T09:03:33.026Z,1020.44
2022-10-03T09:04:12.143Z,1020.40
2022-10-03T09:05:13.782Z,1020.46
2022-10-03T09:06:13.772Z,1020.42
2022-10-03T09:07:17.529Z,1020.48
2022-10-03T09:08:13.756Z,1020.47
2022-10-03T09:09:13.775Z,1020.48
2022-10-03T09:10:13.777Z,1020.49
2022-10-03T09:11:13.756Z,1020.50
2022-10-03T09:12:13.791Z,1020.51
2022-10-03T09:13:13.785Z,1020.45
2022-10-03T09:14:13.783Z,1020.49
2022-10-03T09:15:13.779Z,1020.52
2022-10-03T09:16:18.217Z,1020.47
2022-10-03T09:17:12.163Z,1020.50
2022-10-03T09:18:13.796Z,1020.53
2022-10-03T09:19:13.153Z,1020.53
2022-10-03T09:20:12.139Z,1020.56
2022-10-03T09:21:12.144Z,1020.55
2022-10-03T09:22:12.156Z,1020.52
2022-10-03T09:23:13.825Z,1020.51
2022-10-03T09:24:13.174Z,1020.52
2022-10-03T09:25:12.135Z,1020.55
2022-10-03T09:26:13.795Z,1020.55
2022-10-03T09:27:12.148Z,1020.53
2022-10-03T09:28:13.862Z,1020.56
2022-10-03T09:29:13.148Z,1020.56
2022-10-03T09:30:13.806Z,1020.53
2022-10-03T09:31:13.883Z,1020.53
2022-10-03T09:32:13.776Z,1020.51
2022-10-03T09:33:13.827Z,1020.49
2022-10-03T09:34:13.799Z,1020.43
2022-10-03T09:35:13.781Z,1020.48
2022-10-03T09:36:13.801Z,1020.48
2022-10-03T09:37:13.786Z,1020.46
2022-10-03T09:38:13.813Z,1020.51
2022-10-03T09:39:13.787Z,1020.46
2022-10-03T09:40:16.970Z,1020.53
2022-10-03T09:41:13.815Z,1020.49
2022-10-03T09:42:13.794Z,1020.47
2022-10-03T09:43:13.811Z,1020.48
2022-10-03T09:44:13.813Z,1020.46
2022-10-03T09:45:13.791Z,1020.47
2022-10-03T09:46:13.191Z,1020.55
2022-10-03T09:47:13.797Z,1020.54
2022-10-03T09:48:13.309Z,1020.53
2022-10-03T09:49:13.810Z,1020.51
2022-10-03T09:50:13.812Z,1020.55
2022-10-03T09:51:13.849Z,1020.54
2022-10-03T09:52:12.153Z,1020.47
2022-10-03T09:53:13.840Z,1020.49
2022-10-03T09:54:13.159Z,1020.48
2022-10-03T09:55:13.808Z,1020.53
2022-10-03T09:56:13.144Z,1020.55
2022-10-03T09:57:13.803Z,1020.54
2022-10-03T09:58:13.857Z,1020.55
2022-10-03T09:59:13.208Z,1020.53
2022-10-03T10:00:13.821Z,1020.53
2022-10-03T10:01:13.892Z,1020.49
2022-10-03T10:02:12.136Z,1020.46
2022-10-03T10:13:22.046Z,1020.46
2022-10-03T10:14:21.516Z,1020.50
2022-10-03T10:15:21.425Z,1020.46
2022-10-03T10:16:20.457Z,1020.49
2022-10-03T10:17:22.001Z,1020.48
2022-10-03T10:18:21.420Z,1020.50
2022-10-03T10:19:22.018Z,1020.52
2022-10-03T10:20:22.529Z,1020.48
2022-10-03T10:21:20.416Z,1020.49
2022-10-03T10:22:22.017Z,1020.48
2022-10-03T10:23:22.022Z,1020.49
2022-10-03T10:24:22.016Z,1020.47
2022-10-03T10:25:22.041Z,1020.45
2022-10-03T10:26:21.432Z,1020.44
2022-10-03T10:27:22.045Z,1020.41
2022-10-03T10:28:22.138Z,1020.43
2022-10-03T10:29:20.460Z,1020.38
2022-10-03T10:30:22.027Z,1020.39
2022-10-03T10:31:20.532Z,1020.30
2022-10-03T10:32:22.055Z,1020.35
2022-10-03T10:33:22.022Z,1020.33
2022-10-03T10:34:20.432Z,1020.33
2022-10-03T10:35:22.037Z,1020.31
2022-10-03T10:36:22.024Z,1020.30
2022-10-03T10:37:22.041Z,1020.29
2022-10-03T10:38:20.450Z,1020.33
2022-10-03T10:39:22.052Z,1020.28
2022-10-03T10:40:22.046Z,1020.27
2022-10-03T10:41:22.033Z,1020.29
2022-10-03T10:42:24.067Z,1020.25
2022-10-03T10:43:22.057Z,1020.26
2022-10-03T10:44:22.061Z,1020.26
2022-10-03T10:45:22.067Z,1020.30
2022-10-03T10:46:22.104Z,1020.25
2022-10-03T10:47:22.053Z,1020.28
2022-10-03T10:48:22.039Z,1020.22
2022-10-03T10:49:22.039Z,1020.20
2022-10-03T10:50:22.067Z,1020.26
2022-10-03T10:51:22.043Z,1020.21
2022-10-03T10:52:22.038Z,1020.25
2022-10-03T10:53:22.075Z,1020.25
2022-10-03T10:54:22.067Z,1020.20
2022-10-03T10:55:22.121Z,1020.17
2022-10-03T10:56:22.066Z,1020.21
2022-10-03T10:57:22.060Z,1020.20
2022-10-03T10:58:22.059Z,1020.20
2022-10-03T10:59:22.070Z,1020.18
2022-10-03T11:00:22.076Z,1020.15
2022-10-03T11:01:22.134Z,1020.14
2022-10-03T11:02:22.055Z,1020.14
2022-10-03T11:03:22.063Z,1020.13
2022-10-03T11:04:22.099Z,1020.11
2022-10-03T11:05:22.063Z,1020.10
2022-10-03T11:06:21.583Z,1020.09
2022-10-03T11:07:20.510Z,1020.08
2022-10-03T11:08:20.504Z,1020.03
2022-10-03T11:09:20.517Z,1020.01
2022-10-03T11:10:20.520Z,1020.01
2022-10-03T11:11:22.086Z,1020.07
2022-10-03T11:12:22.062Z,1020.07
2022-10-03T11:13:20.520Z,1020.01
2022-10-03T11:14:22.080Z,1020.03
2022-10-03T11:15:22.074Z,1020.06
2022-10-03T11:16:22.176Z,1020.03
2022-10-03T11:17:22.111Z,1020.01
2022-10-03T11:18:22.075Z,1020.03
2022-10-03T11:19:22.090Z,1020.03
2022-10-03T11:20:22.087Z,1020.03
2022-10-03T11:21:22.086Z,1020.03
2022-10-03T11:22:22.082Z,1020.06
2022-10-03T11:23:22.106Z,1020.07
2022-10-03T11:24:22.082Z,1020.07
2022-10-03T11:25:22.122Z,1020.05
2022-10-03T11:26:20.557Z,1020.03
2022-10-03T11:27:20.577Z,1020.02
2022-10-03T11:28:26.373Z,1019.99
2022-10-03T11:29:20.582Z,1020.00
2022-10-03T11:30:21.621Z,1019.98
2022-10-03T11:31:22.684Z,1020.00
2022-10-03T11:32:20.580Z,1020.01
2022-10-03T11:33:20.590Z,1020.01
2022-10-03T11:34:20.599Z,1020.02
2022-10-03T11:35:20.623Z,1020.06
2022-10-03T11:36:22.106Z,1020.02
2022-10-03T11:37:20.622Z,1020.00
2022-10-03T11:38:20.604Z,1020.02
2022-10-03T11:39:20.591Z,1020.05
2022-10-03T11:40:20.616Z,1020.04
2022-10-03T11:41:22.115Z,1020.06
2022-10-03T11:42:22.119Z,1020.10
2022-10-03T11:43:20.609Z,1020.08
2022-10-03T11:44:20.666Z,1020.12
2022-10-03T11:45:21.656Z,1020.04
2022-10-03T11:46:22.613Z,1020.09
2022-10-03T11:47:22.137Z,1020.07
2022-10-03T11:48:20.631Z,1020.12
2022-10-03T11:49:22.133Z,1020.12
2022-10-03T11:50:21.635Z,1020.11
2022-10-03T11:51:22.626Z,1020.13
2022-10-03T11:52:20.650Z,1020.12
2022-10-03T11:53:22.642Z,1020.09
2022-10-03T11:54:31.996Z,1020.09
2022-10-03T11:55:20.628Z,1020.11
2022-10-03T11:56:22.625Z,1020.12
2022-10-03T11:57:20.647Z,1020.11
2022-10-03T11:58:22.140Z,1020.15
2022-10-03T11:59:23.760Z,1020.15
2022-10-03T12:00:22.622Z,1020.16
2022-10-03T12:01:20.650Z,1020.18
2022-10-03T12:02:22.645Z,1020.17
2022-10-03T12:03:22.710Z,1020.16
2022-10-03T12:04:21.647Z,1020.17
2022-10-03T12:05:22.144Z,1020.16
2022-10-03T12:06:21.649Z,1020.19
2022-10-03T12:07:22.641Z,1020.15
2022-10-03T12:08:23.160Z,1020.14
2022-10-03T12:09:20.656Z,1020.16
2022-10-03T12:10:20.691Z,1020.12
2022-10-03T12:11:20.674Z,1020.13
2022-10-03T12:12:20.664Z,1020.13
2022-10-03T12:13:22.651Z,1020.15
2022-10-03T12:14:22.644Z,1020.13
2022-10-03T12:15:22.633Z,1020.15
2022-10-03T12:16:22.656Z,1020.16
2022-10-03T12:17:20.687Z,1020.13
2022-10-03T12:18:22.664Z,1020.12
2022-10-03T12:19:22.680Z,1020.12
2022-10-03T12:20:22.650Z,1020.11
2022-10-03T12:21:22.264Z,1020.09
2022-10-03T12:22:22.636Z,1020.09
2022-10-03T12:23:22.660Z,1020.12
2022-10-03T12:24:20.684Z,1020.13
2022-10-03T12:25:22.667Z,1020.13
2022-10-03T12:26:22.642Z,1020.11
2022-10-03T12:27:22.658Z,1020.12
2022-10-03T12:28:22.691Z,1020.11
2022-10-03T12:29:22.647Z,1020.12
2022-10-03T12:30:22.688Z,1020.07
2022-10-03T12:31:22.755Z,1020.06
2022-10-03T12:32:22.656Z,1020.07
2022-10-03T12:33:22.648Z,1020.06
2022-10-03T12:34:22.666Z,1020.10
2022-10-03T12:35:20.727Z,1020.09
2022-10-03T12:36:20.725Z,1020.06
2022-10-03T12:37:20.748Z,1020.09
2022-10-03T12:38:20.737Z,1020.08
2022-10-03T12:39:22.709Z,1020.10
2022-10-03T12:40:20.742Z,1020.12
2022-10-03T12:41:20.747Z,1020.09
2022-10-03T12:42:20.732Z,1020.07
2022-10-03T12:43:20.751Z,1020.04
2022-10-03T12:44:22.679Z,1020.07
2022-10-03T12:45:22.175Z,1020.08
2022-10-03T12:46:22.736Z,1020.08
2022-10-03T12:47:37.721Z,1020.08
2022-10-03T12:48:22.688Z,1020.09
2022-10-03T12:49:20.758Z,1020.07
2022-10-03T12:50:24.206Z,1020.04
2022-10-03T12:51:22.668Z,1020.05
2022-10-03T12:52:23.693Z,1020.07
2022-10-03T12:53:22.674Z,1020.06
2022-10-03T12:54:26.472Z,1020.04
2022-10-03T12:55:23.674Z,1020.03
2022-10-03T12:56:22.682Z,1020.01
2022-10-03T12:57:22.677Z,1020.01
2022-10-03T12:58:22.700Z,1020.03
2022-10-03T12:59:22.713Z,1020.01
2022-10-03T13:00:22.679Z,1020.03
2022-10-03T13:01:22.704Z,1020.02
2022-10-03T13:02:22.863Z,1020.01
2022-10-03T13:03:22.688Z,1020.02
2022-10-03T13:04:22.696Z,1020.00
2022-10-03T13:05:22.697Z,1019.98
2022-10-03T13:06:38.829Z,1019.97
2022-10-03T13:07:22.707Z,1019.95
2022-10-03T13:08:22.817Z,1019.97
2022-10-03T13:09:22.690Z,1019.97
2022-10-03T13:10:22.728Z,1019.97
2022-10-03T13:11:20.834Z,1020.02
2022-10-03T13:12:25.428Z,1020.01
2022-10-03T13:13:20.845Z,1020.04
2022-10-03T13:14:20.841Z,1020.03
2022-10-03T13:15:22.220Z,1020.03
2022-10-03T13:16:20.932Z,1020.07
2022-10-03T13:17:20.847Z,1020.00
2022-10-03T13:18:20.851Z,1020.03
2022-10-03T13:19:21.854Z,1020.02
2022-10-03T13:20:20.861Z,1020.02
2022-10-03T13:21:44.422Z,1020.04
2022-10-03T13:22:20.871Z,1020.00
2022-10-03T13:23:22.712Z,1020.00
2022-10-03T13:24:21.876Z,1019.98
2022-10-03T13:25:20.866Z,1020.01
2022-10-03T13:26:22.733Z,1019.99
2022-10-03T13:27:20.867Z,1020.03
2022-10-03T13:28:24.342Z,1020.01
2022-10-03T13:29:22.724Z,1020.01
2022-10-03T13:30:20.896Z,1020.00
2022-10-03T13:31:22.814Z,1020.05
2022-10-03T13:32:20.904Z,1020.05
2022-10-03T13:33:22.713Z,1020.05
2022-10-03T13:34:21.882Z,1020.07
2022-10-03T13:35:22.748Z,1020.05
2022-10-03T13:36:21.897Z,1020.03
2022-10-03T13:37:20.882Z,1020.06
2022-10-03T13:38:22.719Z,1020.04
2022-10-03T13:39:21.893Z,1019.99
2022-10-03T13:40:22.255Z,1020.01
2022-10-03T13:41:20.890Z,1020.04
2022-10-03T13:42:22.752Z,1020.05
2022-10-03T13:43:20.901Z,1020.08
2022-10-03T13:44:20.899Z,1020.07
2022-10-03T13:45:22.243Z,1020.05
2022-10-03T13:46:21.989Z,1020.02
2022-10-03T13:47:22.763Z,1019.98
2022-10-03T13:48:21.893Z,1019.99
2022-10-03T13:49:22.783Z,1019.94
2022-10-03T13:50:22.747Z,1019.92
2022-10-03T13:51:22.755Z,1019.93
2022-10-03T13:52:22.758Z,1019.90
2022-10-03T13:53:22.756Z,1019.88
2022-10-03T13:54:20.901Z,1019.92
2022-10-03T13:55:22.737Z,1019.94
2022-10-03T13:56:22.759Z,1019.97
2022-10-03T13:57:22.749Z,1019.97
2022-10-03T13:58:22.788Z,1019.95
2022-10-03T13:59:22.379Z,1019.98
2022-10-03T14:00:22.743Z,1019.98
2022-10-03T14:01:22.809Z,1019.96
2022-10-03T14:02:20.945Z,1019.94
2022-10-03T14:03:22.809Z,1019.94
2022-10-03T14:04:20.902Z,1019.95
2022-10-03T14:05:20.927Z,1019.90
2022-10-03T14:06:22.267Z,1019.91
2022-10-03T14:07:20.912Z,1019.92
2022-10-03T14:08:22.767Z,1019.96
2022-10-03T14:09:23.274Z,1019.96
2022-10-03T14:10:20.912Z,1019.96
2022-10-03T14:11:20.905Z,1019.97
2022-10-03T14:12:33.125Z,1019.96
2022-10-03T14:13:20.911Z,1019.93
2022-10-03T14:14:22.781Z,1019.92
2022-10-03T14:15:20.904Z,1019.96
2022-10-03T14:16:20.974Z,1019.95
2022-10-03T14:17:22.804Z,1019.92
2022-10-03T14:18:22.803Z,1019.95
2022-10-03T14:19:22.271Z,1019.92
2022-10-03T14:20:22.784Z,1019.91
2022-10-03T14:21:22.775Z,1019.93
2022-10-03T14:22:22.778Z,1019.91
2022-10-03T14:23:22.796Z,1019.94
2022-10-03T14:24:22.794Z,1019.94
2022-10-03T14:25:22.909Z,1019.93
2022-10-03T14:26:22.781Z,1019.93
2022-10-03T14:27:22.783Z,1019.96
2022-10-03T14:28:22.928Z,1019.93
2022-10-03T14:29:22.801Z,1019.89
2022-10-03T14:30:22.775Z,1019.83
2022-10-03T14:31:22.015Z,1019.82
2022-10-03T14:32:46.080Z,1019.81
2022-10-03T14:33:22.777Z,1019.76
2022-10-03T14:34:22.804Z,1019.77
2022-10-03T14:35:22.827Z,1019.75
2022-10-03T14:36:22.812Z,1019.77
2022-10-03T14:37:22.785Z,1019.76
2022-10-03T14:38:22.791Z,1019.79
2022-10-03T14:39:22.781Z,1019.77
2022-10-03T14:40:22.787Z,1019.75
2022-10-03T14:41:22.817Z,1019.72
2022-10-03T14:42:22.787Z,1019.72
2022-10-03T14:43:22.794Z,1019.68
2022-10-03T14:44:22.813Z,1019.71
2022-10-03T14:45:20.892Z,1019.68
2022-10-03T14:46:22.372Z,1019.69
2022-10-03T14:47:20.885Z,1019.71
2022-10-03T14:48:21.888Z,1019.70
2022-10-03T14:49:48.510Z,1019.72
2022-10-03T14:50:22.814Z,1019.74
2022-10-03T14:51:20.893Z,1019.71
2022-10-03T14:52:20.890Z,1019.71
2022-10-03T14:53:20.891Z,1019.71
2022-10-03T14:54:20.889Z,1019.70
2022-10-03T14:55:25.280Z,1019.71
2022-10-03T14:56:21.911Z,1019.71
2022-10-03T14:57:22.335Z,1019.70
2022-10-03T14:58:21.889Z,1019.72
2022-10-03T14:59:20.951Z,1019.69
2022-10-03T15:01:21.881Z,1019.70
2022-10-03T15:02:20.921Z,1019.67
2022-10-03T15:03:22.891Z,1019.68
2022-10-03T15:04:22.329Z,1019.67
2022-10-03T15:05:22.831Z,1019.62
2022-10-03T15:06:23.318Z,1019.63
2022-10-03T15:07:20.885Z,1019.56
2022-10-03T15:08:22.812Z,1019.60
2022-10-03T15:09:22.815Z,1019.63
2022-10-03T15:10:22.810Z,1019.63
2022-10-03T15:11:22.828Z,1019.64
2022-10-03T15:12:22.808Z,1019.64
2022-10-03T15:13:22.810Z,1019.62
2022-10-03T15:14:22.818Z,1019.67
2022-10-03T15:15:22.824Z,1019.66
2022-10-03T15:16:23.066Z,1019.67
2022-10-03T15:17:22.827Z,1019.62
2022-10-03T15:18:22.847Z,1019.60
2022-10-03T15:19:20.869Z,1019.61
2022-10-03T15:20:22.828Z,1019.55
2022-10-03T15:21:22.330Z,1019.57
2022-10-03T15:22:20.865Z,1019.54
2022-10-03T15:23:22.845Z,1019.56
2022-10-03T15:24:25.289Z,1019.52
2022-10-03T15:25:22.828Z,1019.56
2022-10-03T15:26:21.865Z,1019.54
2022-10-03T15:27:22.827Z,1019.50
2022-10-03T15:28:22.900Z,1019.49
2022-10-03T15:29:22.858Z,1019.51
2022-10-03T15:30:24.220Z,1019.45
2022-10-03T15:31:22.886Z,1019.44
2022-10-03T15:32:20.848Z,1019.41
2022-10-03T15:33:22.852Z,1019.39
2022-10-03T15:34:22.854Z,1019.40
2022-10-03T15:35:22.833Z,1019.36
2022-10-03T15:36:22.841Z,1019.39
2022-10-03T15:37:22.837Z,1019.38
2022-10-03T15:38:20.843Z,1019.37
2022-10-03T15:39:22.354Z,1019.39
2022-10-03T15:40:21.849Z,1019.37
2022-10-03T15:41:20.849Z,1019.40
2022-10-03T15:42:20.836Z,1019.39
2022-10-03T15:43:21.853Z,1019.38
2022-10-03T15:44:20.847Z,1019.36
2022-10-03T15:45:20.841Z,1019.34
2022-10-03T15:46:21.976Z,1019.32
2022-10-03T15:47:20.954Z,1019.31
2022-10-03T15:48:20.823Z,1019.24
2022-10-03T15:49:20.854Z,1019.25
2022-10-03T15:50:20.985Z,1019.23
2022-10-03T15:51:22.363Z,1019.23
2022-10-03T15:52:20.820Z,1019.22
2022-10-03T15:53:37.364Z,1019.20
2022-10-03T15:54:20.821Z,1019.19
2022-10-03T15:55:21.825Z,1019.15
2022-10-03T15:56:22.009Z,1019.15
2022-10-03T15:57:22.372Z,1019.15
2022-10-03T15:58:22.385Z,1019.15
2022-10-03T15:59:21.863Z,1019.10
2022-10-03T16:00:22.378Z,1019.12
2022-10-03T16:12:29.527Z,1019.03
2022-10-03T16:13:29.497Z,1019.07
2022-10-03T16:14:29.531Z,1019.04
2022-10-03T16:15:27.873Z,1019.03
2022-10-03T16:16:29.552Z,1019.03
2022-10-03T16:17:29.512Z,1019.03
2022-10-03T16:18:29.512Z,1019.03
2022-10-03T16:19:27.861Z,1019.00
2022-10-03T16:20:29.506Z,1019.01
2022-10-03T16:21:29.573Z,1019.01
2022-10-03T16:22:29.534Z,1018.99
2022-10-03T16:23:29.511Z,1018.99
2022-10-03T16:24:29.508Z,1019.02
2022-10-03T16:25:29.538Z,1019.02
2022-10-03T16:26:29.529Z,1019.02